createdAt,value
2022-09-09T00:01:44.554Z,7.57
2022-09-09T00:04:28.721Z,7.97
2022-09-09T00:07:00.916Z,8.60
2022-09-09T00:09:30.715Z,8.85
2022-09-09T00:12:18.183Z,8.43
2022-09-09T00:15:03.293Z,8.68
2022-09-09T00:17:40.919Z,8.05
2022-09-09T00:20:30.517Z,9.38
2022-09-09T00:23:31.104Z,8.98
2022-09-09T00:26:04.946Z,9.35
2022-09-09T00:28:37.149Z,8.27
2022-09-09T00:31:19.972Z,9.23
2022-09-09T00:33:49.027Z,8.73
2022-09-09T00:36:19.461Z,8.63
2022-09-09T00:38:53.616Z,7.40
2022-09-09T00:41:27.566Z,9.15
2022-09-09T00:44:01.849Z,8.80
2022-09-09T00:47:03.104Z,8.52
2022-09-09T00:49:36.940Z,8.63
2022-09-09T00:52:19.377Z,8.07
2022-09-09T00:55:06.368Z,8.05
2022-09-09T00:57:36.352Z,7.78
2022-09-09T01:00:21.204Z,8.70
2022-09-09T01:03:11.460Z,8.55
2022-09-09T01:06:00.373Z,8.35
2022-09-09T01:08:55.325Z,8.02
2022-09-09T01:11:26.718Z,9.07
2022-09-09T01:14:21.740Z,9.23
2022-09-09T01:16:49.699Z,8.52
2022-09-09T01:19:33.492Z,7.85
2022-09-09T01:22:26.693Z,8.25
2022-09-09T01:25:14.238Z,7.47
2022-09-09T01:28:22.442Z,6.78
2022-09-09T01:30:51.046Z,8.02
2022-09-09T01:33:23.614Z,6.97
2022-09-09T01:35:51.825Z,7.72
2022-09-09T01:38:19.838Z,7.80
2022-09-09T01:40:50.137Z,8.13
2022-09-09T01:43:17.077Z,8.10
2022-09-09T01:45:45.160Z,7.80
2022-09-09T01:48:12.138Z,7.68
2022-09-09T01:50:44.998Z,7.97
2022-09-09T01:53:13.988Z,7.85
2022-09-09T01:55:46.196Z,6.85
2022-09-09T01:58:46.231Z,7.28
2022-09-09T02:01:28.166Z,7.25
2022-09-09T02:03:58.538Z,7.53
2022-09-09T02:06:25.467Z,8.15
2022-09-09T02:08:58.445Z,7.60
2022-09-09T02:11:28.834Z,7.97
2022-09-09T02:14:15.382Z,7.38
2022-09-09T02:17:04.244Z,7.07
2022-09-09T02:19:59.265Z,6.50
2022-09-09T02:22:40.518Z,7.90
2022-09-09T02:25:11.164Z,7.35
2022-09-09T02:27:38.496Z,5.85
2022-09-09T02:30:06.160Z,7.43
2022-09-09T02:32:43.411Z,7.55
2022-09-09T02:35:15.421Z,7.32
2022-09-09T02:37:47.233Z,7.30
2022-09-09T02:40:19.220Z,8.88
2022-09-09T02:42:50.795Z,7.93
2022-09-09T02:45:25.973Z,7.55
2022-09-09T02:48:03.621Z,8.18
2022-09-09T02:50:36.580Z,7.43
2022-09-09T02:53:19.039Z,8.07
2022-09-09T02:56:06.138Z,7.63
2022-09-09T02:58:37.494Z,8.23
2022-09-09T03:01:06.806Z,7.05
2022-09-09T03:03:34.193Z,7.38
2022-09-09T03:06:06.676Z,7.57
2022-09-09T03:08:33.617Z,7.88
2022-09-09T03:11:02.387Z,8.10
2022-09-09T03:13:31.891Z,6.95
2022-09-09T03:15:58.928Z,7.28
2022-09-09T03:18:26.810Z,8.02
2022-09-09T03:20:55.085Z,7.10
2022-09-09T03:23:22.789Z,7.60
2022-09-09T03:25:51.275Z,7.72
2022-09-09T03:28:22.398Z,6.63
2022-09-09T03:30:50.851Z,8.18
2022-09-09T03:33:18.783Z,6.85
2022-09-09T03:35:49.807Z,7.80
2022-09-09T03:38:18.987Z,7.88
2022-09-09T03:40:56.460Z,7.05
2022-09-09T03:43:24.388Z,6.97
2022-09-09T03:45:53.317Z,7.20
2022-09-09T03:48:20.709Z,6.65
2022-09-09T03:50:49.474Z,6.57
2022-09-09T03:53:18.689Z,7.20
2022-09-09T03:55:47.566Z,6.70
2022-09-09T03:58:16.149Z,6.38
2022-09-09T04:00:45.990Z,6.65
2022-09-09T04:03:13.206Z,7.35
2022-09-09T04:05:43.338Z,6.70
2022-09-09T04:08:10.866Z,6.60
2022-09-09T04:10:38.148Z,7.45
2022-09-09T04:13:06.075Z,7.32
2022-09-09T04:15:34.128Z,7.32
2022-09-09T04:18:01.659Z,7.10
2022-09-09T04:20:28.499Z,6.80
2022-09-09T04:22:55.382Z,6.50
2022-09-09T04:25:22.715Z,5.68
2022-09-09T04:27:55.814Z,6.28
2022-09-09T04:30:23.730Z,5.88
2022-09-09T04:32:50.555Z,6.65
2022-09-09T04:35:17.753Z,6.15
2022-09-09T04:37:45.946Z,6.40
2022-09-09T04:40:13.130Z,6.75
2022-09-09T04:42:40.509Z,6.45
2022-09-09T04:45:08.072Z,6.47
2022-09-09T04:47:36.187Z,5.63
2022-09-09T04:50:03.013Z,6.65
2022-09-09T04:52:29.993Z,5.90
2022-09-09T04:54:56.759Z,6.25
2022-09-09T04:57:23.748Z,5.85
2022-09-09T04:59:51.014Z,6.28
2022-09-09T05:02:17.919Z,6.15
2022-09-09T05:04:44.843Z,5.53
2022-09-09T05:07:11.720Z,5.85
2022-09-09T05:09:40.091Z,5.80
2022-09-09T05:12:07.676Z,5.70
2022-09-09T05:14:39.374Z,5.72
2022-09-09T05:17:07.214Z,5.47
2022-09-09T05:19:36.504Z,5.80
2022-09-09T05:22:04.112Z,6.28
2022-09-09T05:24:39.389Z,6.20
2022-09-09T05:27:07.098Z,5.55
2022-09-09T05:29:37.292Z,5.03
2022-09-09T05:32:06.167Z,5.43
2022-09-09T05:34:35.752Z,5.50
2022-09-09T05:37:02.670Z,5.80
2022-09-09T05:39:29.432Z,5.43
2022-09-09T05:41:57.002Z,4.90
2022-09-09T05:44:28.591Z,5.00
2022-09-09T05:46:55.559Z,4.82
2022-09-09T05:49:22.806Z,5.45
2022-09-09T05:51:51.485Z,5.07
2022-09-09T05:54:19.737Z,4.70
2022-09-09T05:56:52.034Z,5.15
2022-09-09T05:59:19.721Z,4.60
2022-09-09T06:01:46.923Z,4.55
2022-09-09T06:04:25.270Z,4.38
2022-09-09T06:06:52.333Z,4.43
2022-09-09T06:09:21.904Z,4.03
2022-09-09T06:11:48.708Z,3.80
2022-09-09T06:14:16.062Z,3.08
2022-09-09T06:16:46.308Z,3.47
2022-09-09T06:19:20.569Z,3.17
2022-09-09T06:21:48.866Z,2.75
2022-09-09T06:24:18.349Z,2.97
2022-09-09T06:26:46.348Z,2.95
2022-09-09T06:29:18.256Z,2.50
2022-09-09T06:31:46.895Z,2.47
2022-09-09T06:34:16.601Z,2.67
2022-09-09T06:36:47.476Z,2.75
2022-09-09T06:39:16.432Z,2.53
2022-09-09T06:41:44.117Z,2.40
2022-09-09T06:44:34.974Z,2.28
2022-09-09T06:47:03.231Z,2.47
2022-09-09T06:49:30.226Z,2.20
2022-09-09T06:51:57.410Z,2.20
2022-09-09T06:54:26.306Z,2.33
2022-09-09T06:56:53.867Z,2.00
2022-09-09T06:59:23.870Z,2.30
2022-09-09T07:01:56.313Z,2.35
2022-09-09T07:04:24.174Z,2.15
2022-09-09T07:06:53.471Z,1.80
2022-09-09T07:09:24.815Z,1.90
2022-09-09T07:11:56.113Z,1.90
2022-09-09T07:14:24.228Z,1.80
2022-09-09T07:17:10.949Z,2.53
2022-09-09T07:19:40.435Z,1.88
2022-09-09T07:22:07.378Z,1.70
2022-09-09T07:24:35.592Z,1.80
2022-09-09T07:27:04.428Z,1.70
2022-09-09T07:29:31.803Z,1.75
2022-09-09T07:31:59.929Z,1.58
2022-09-09T07:34:32.226Z,1.73
2022-09-09T07:36:59.382Z,1.45
2022-09-09T07:39:26.441Z,1.60
2022-09-09T07:41:55.610Z,1.50
2022-09-09T07:44:25.871Z,1.45
2022-09-09T07:47:04.357Z,1.40
2022-09-09T07:49:51.297Z,1.50
2022-09-09T07:52:24.679Z,1.45
2022-09-09T07:54:57.425Z,1.55
2022-09-09T07:57:24.798Z,1.50
2022-09-09T07:59:53.157Z,1.40
2022-09-09T08:02:20.687Z,1.60
2022-09-09T08:04:47.855Z,1.73
2022-09-09T08:07:17.330Z,1.27
2022-09-09T08:09:50.492Z,1.23
2022-09-09T08:12:22.370Z,1.40
2022-09-09T08:14:49.657Z,1.30
2022-09-09T08:17:16.952Z,1.50
2022-09-09T08:19:45.581Z,1.60
2022-09-09T08:22:18.362Z,1.50
2022-09-09T08:24:45.345Z,1.30
2022-09-09T08:27:13.812Z,1.42
2022-09-09T08:29:40.605Z,1.55
2022-09-09T08:32:07.613Z,1.55
2022-09-09T08:34:41.291Z,1.60
2022-09-09T08:37:11.889Z,1.70
2022-09-09T08:39:41.184Z,1.35
2022-09-09T08:42:18.359Z,1.20
2022-09-09T08:44:49.014Z,1.10
2022-09-09T08:47:31.837Z,0.93
2022-09-09T08:50:17.773Z,1.27
2022-09-09T08:53:06.921Z,1.27
2022-09-09T08:55:48.116Z,1.20
2022-09-09T08:58:22.466Z,1.23
2022-09-09T09:01:11.527Z,1.15
2022-09-09T09:03:51.498Z,1.10
2022-09-09T09:06:38.965Z,0.90
2022-09-09T09:09:12.567Z,1.10
2022-09-09T09:11:43.607Z,1.15
2022-09-09T09:14:20.022Z,1.00
2022-09-09T09:16:54.879Z,1.17
2022-09-09T09:19:24.113Z,1.10
2022-09-09T09:22:16.431Z,1.10
2022-09-09T09:24:54.871Z,1.00
2022-09-09T09:27:45.026Z,1.00
2022-09-09T09:30:26.668Z,0.85
2022-09-09T09:33:09.807Z,1.00
2022-09-09T09:35:41.581Z,0.90
2022-09-09T09:41:16.523Z,1.23
2022-09-09T09:43:54.117Z,1.00
2022-09-09T09:46:28.382Z,0.90
2022-09-09T09:49:06.546Z,0.82
2022-09-09T09:51:35.490Z,1.00
2022-09-09T09:54:16.891Z,1.00
2022-09-09T09:56:48.693Z,1.27
2022-09-09T09:59:40.996Z,1.10
2022-09-09T10:02:15.541Z,1.13
2022-09-09T10:04:43.284Z,0.90
2022-09-09T10:07:18.028Z,1.30
2022-09-09T10:09:45.026Z,0.80
2022-09-09T10:12:34.640Z,1.00
2022-09-09T10:15:04.077Z,0.80
2022-09-09T10:17:59.746Z,0.85
2022-09-09T10:20:40.486Z,0.90
2022-09-09T10:23:15.375Z,0.90
2022-09-09T10:25:57.222Z,1.20
2022-09-09T10:28:44.280Z,0.77
2022-09-09T10:31:30.952Z,0.70
2022-09-09T10:36:47.911Z,1.20
2022-09-09T10:39:32.581Z,1.13
2022-09-09T10:42:10.322Z,0.88
2022-09-09T10:44:58.009Z,0.80
2022-09-09T10:47:44.522Z,0.63
2022-09-09T10:54:01.230Z,0.90
2022-09-09T10:56:30.052Z,0.73
2022-09-09T10:59:07.318Z,0.70
2022-09-09T11:01:50.417Z,0.80
2022-09-09T11:04:21.516Z,0.68
2022-09-09T11:06:56.517Z,0.70
2022-09-09T11:09:32.073Z,0.60
2022-09-09T11:12:03.271Z,0.80
2022-09-09T11:14:37.506Z,1.20
2022-09-09T11:17:15.100Z,0.80
2022-09-09T11:19:44.638Z,0.70
2022-09-09T11:22:20.178Z,0.70
2022-09-09T11:24:51.437Z,0.73
2022-09-09T11:27:31.398Z,0.73
2022-09-09T11:30:57.589Z,0.90
2022-09-09T11:33:44.324Z,0.50
2022-09-09T11:36:29.217Z,0.57
2022-09-09T11:39:12.572Z,0.43
2022-09-09T11:41:39.458Z,0.52
2022-09-09T11:44:17.770Z,0.50
2022-09-09T11:46:51.148Z,0.65
2022-09-09T11:49:41.112Z,1.35
2022-09-09T11:52:38.083Z,0.75
2022-09-09T11:55:39.039Z,14.23
2022-09-09T11:58:12.575Z,2.00
2022-09-09T12:00:46.041Z,0.60
2022-09-09T12:03:49.857Z,0.70
2022-09-09T12:06:19.042Z,0.75
2022-09-09T12:08:51.098Z,1.05
2022-09-09T12:11:30.009Z,0.65
2022-09-09T12:13:59.234Z,0.70
2022-09-09T12:16:35.442Z,0.85
2022-09-09T12:19:28.749Z,0.60
2022-09-09T12:22:04.144Z,0.80
2022-09-09T12:24:59.467Z,0.67
2022-09-09T12:27:49.018Z,0.70
2022-09-09T12:30:18.062Z,0.88
2022-09-09T12:32:47.524Z,0.90
2022-09-09T12:35:22.292Z,0.90
2022-09-09T12:37:58.984Z,1.20
2022-09-09T12:40:27.088Z,1.25
2022-09-09T12:42:53.883Z,1.00
2022-09-09T12:45:32.506Z,0.90
2022-09-09T12:48:03.966Z,1.08
2022-09-09T12:50:41.586Z,1.27
2022-09-09T12:53:30.536Z,1.15
2022-09-09T12:56:09.479Z,1.30
2022-09-09T12:58:39.191Z,1.38
2022-09-09T13:01:07.210Z,1.23
2022-09-09T13:03:43.554Z,1.30
2022-09-09T13:06:20.641Z,1.60
2022-09-09T13:08:47.389Z,1.50
2022-09-09T13:11:21.394Z,1.10
2022-09-09T13:13:54.293Z,0.90
2022-09-09T13:16:33.093Z,1.20
2022-09-09T13:19:07.681Z,0.77
2022-09-09T13:21:39.630Z,0.60
2022-09-09T13:24:29.421Z,0.55
2022-09-09T13:27:20.824Z,0.55
2022-09-09T13:29:57.759Z,0.65
2022-09-09T13:32:27.905Z,0.75
2022-09-09T13:35:02.556Z,0.90
2022-09-09T13:37:37.160Z,0.60
2022-09-09T13:40:16.887Z,0.57
2022-09-09T13:42:43.707Z,0.50
2022-09-09T13:45:21.463Z,0.38
2022-09-09T13:47:53.060Z,0.90
2022-09-09T13:50:28.423Z,0.60
2022-09-09T13:52:59.208Z,0.67
2022-09-09T13:55:30.534Z,1.60
2022-09-09T13:58:02.575Z,0.80
2022-09-09T14:00:36.002Z,0.90
2022-09-09T14:03:03.168Z,0.60
2022-09-09T14:05:33.480Z,0.73
2022-09-09T14:08:01.646Z,0.73
2022-09-09T14:10:28.492Z,0.63
2022-09-09T14:12:55.317Z,0.60
2022-09-09T14:15:22.806Z,0.80
2022-09-09T14:17:49.750Z,0.60
2022-09-09T14:20:18.477Z,0.75
2022-09-09T14:22:45.420Z,0.50
2022-09-09T14:25:14.386Z,0.60
2022-09-09T14:27:41.480Z,0.50
2022-09-09T14:30:08.919Z,0.50
2022-09-09T14:32:35.733Z,0.60
2022-09-09T14:35:02.439Z,0.68
2022-09-09T14:37:29.207Z,0.50
2022-09-09T14:39:56.208Z,0.68
2022-09-09T14:42:23.126Z,0.70
2022-09-09T14:44:49.892Z,0.60
2022-09-09T14:47:16.653Z,0.70
2022-09-09T14:49:46.581Z,0.68
2022-09-09T14:52:14.075Z,1.40
2022-09-09T14:54:41.191Z,1.40
2022-09-09T14:57:07.915Z,1.17
2022-09-09T14:59:35.444Z,0.70
2022-09-09T15:02:05.212Z,0.70
2022-09-09T15:04:32.223Z,0.82
2022-09-09T15:06:59.823Z,0.88
2022-09-09T15:09:26.566Z,0.73
2022-09-09T15:11:53.351Z,0.52
2022-09-09T15:14:22.431Z,0.88
2022-09-09T15:16:52.604Z,0.55
2022-09-09T15:19:19.609Z,0.73
2022-09-09T15:21:46.341Z,0.75
2022-09-09T15:24:14.739Z,0.60
2022-09-09T15:26:41.646Z,0.60
2022-09-09T15:29:09.414Z,0.90
2022-09-09T15:31:36.889Z,0.60
2022-09-09T15:34:07.124Z,0.85
2022-09-09T15:36:39.897Z,0.80
2022-09-09T15:39:09.300Z,0.60
2022-09-09T15:41:36.732Z,1.02
2022-09-09T15:44:03.748Z,0.60
2022-09-09T15:46:38.218Z,0.70
2022-09-09T15:49:13.981Z,0.60
2022-09-09T15:51:46.826Z,0.55
2022-09-09T15:54:19.097Z,0.60
2022-09-09T15:56:49.672Z,0.50
2022-09-09T15:59:17.023Z,0.88
2022-09-09T16:01:45.068Z,1.10
2022-09-09T16:04:12.607Z,0.68
2022-09-09T16:06:40.043Z,0.65
2022-09-09T16:09:08.580Z,0.77
2022-09-09T16:11:38.389Z,1.10
2022-09-09T16:14:06.393Z,1.08
2022-09-09T16:16:33.632Z,0.68
2022-09-09T16:19:05.355Z,0.80
2022-09-09T16:21:36.175Z,0.70
2022-09-09T16:24:12.586Z,0.70
2022-09-09T16:26:45.611Z,0.60
2022-09-09T16:29:16.702Z,1.05
2022-09-09T16:31:44.012Z,0.63
2022-09-09T16:34:11.716Z,0.60
2022-09-09T16:36:40.328Z,0.63
2022-09-09T16:39:12.957Z,0.77
2022-09-09T16:41:41.386Z,0.70
2022-09-09T16:44:10.907Z,0.77
2022-09-09T16:46:39.893Z,0.80
2022-09-09T16:49:11.739Z,0.80
2022-09-09T16:51:42.068Z,0.90
2022-09-09T16:54:10.286Z,1.10
2022-09-09T16:56:39.490Z,0.77
2022-09-09T16:59:09.482Z,1.10
2022-09-09T17:01:38.873Z,0.68
2022-09-09T17:04:08.370Z,1.10
2022-09-09T17:06:35.939Z,0.90
2022-09-09T17:09:06.285Z,1.08
2022-09-09T17:11:33.402Z,0.82
2022-09-09T17:14:01.276Z,0.90
2022-09-09T17:16:31.802Z,0.95
2022-09-09T17:19:02.312Z,1.10
2022-09-09T17:21:30.062Z,1.17
2022-09-09T17:23:57.748Z,1.13
2022-09-09T17:26:28.270Z,1.15
2022-09-09T17:28:59.351Z,1.20
2022-09-09T17:31:28.497Z,1.33
2022-09-09T17:33:56.123Z,1.20
2022-09-09T17:36:26.155Z,1.20
2022-09-09T17:38:53.729Z,1.30
2022-09-09T17:41:23.103Z,1.35
2022-09-09T17:43:50.600Z,1.55
2022-09-09T17:46:22.360Z,1.30
2022-09-09T17:48:51.397Z,1.42
2022-09-09T17:51:28.278Z,1.40
2022-09-09T17:53:57.048Z,1.90
2022-09-09T17:56:27.144Z,1.70
2022-09-09T17:58:54.109Z,1.88
2022-09-09T18:01:27.886Z,2.00
2022-09-09T18:03:57.476Z,1.70
2022-09-09T18:06:30.793Z,1.40
2022-09-09T18:08:59.887Z,1.35
2022-09-09T18:11:29.468Z,1.30
2022-09-09T18:14:00.480Z,1.33
2022-09-09T18:16:29.379Z,1.30
2022-09-09T18:18:58.497Z,1.52
2022-09-09T18:21:33.098Z,1.33
2022-09-09T18:24:01.555Z,1.63
2022-09-09T18:26:28.749Z,1.77
2022-09-09T18:28:58.271Z,1.52
2022-09-09T18:31:27.962Z,1.60
2022-09-09T18:33:57.203Z,1.27
2022-09-09T18:36:26.355Z,1.45
2022-09-09T18:38:53.714Z,1.80
2022-09-09T18:41:23.809Z,1.63
2022-09-09T18:43:52.853Z,1.40
2022-09-09T18:46:20.911Z,1.40
2022-09-09T18:48:50.508Z,1.48
2022-09-09T18:51:20.642Z,1.70
2022-09-09T18:54:05.505Z,1.58
2022-09-09T18:56:32.417Z,1.50
2022-09-09T18:59:03.975Z,1.10
2022-09-09T19:01:31.280Z,1.30
2022-09-09T19:03:58.496Z,1.20
2022-09-09T19:06:28.201Z,1.20
2022-09-09T19:09:03.673Z,1.05
2022-09-09T19:14:00.706Z,1.38
2022-09-09T19:16:29.535Z,1.23
2022-09-09T19:19:00.085Z,1.50
2022-09-09T19:21:30.050Z,1.30
2022-09-09T19:24:01.268Z,1.40
2022-09-09T19:26:29.715Z,1.40
2022-09-09T19:28:59.072Z,1.40
2022-09-09T19:31:27.941Z,1.40
2022-09-09T19:33:55.770Z,1.58
2022-09-09T19:36:24.789Z,2.15
2022-09-09T19:38:53.820Z,2.00
2022-09-09T19:41:23.299Z,1.55
2022-09-09T19:43:50.864Z,2.05
2022-09-09T19:46:21.009Z,2.20
2022-09-09T19:48:48.003Z,2.15
2022-09-09T19:51:17.680Z,1.60
2022-09-09T19:53:48.490Z,1.50
2022-09-09T19:56:17.196Z,1.30
2022-09-09T19:58:46.697Z,1.60
2022-09-09T20:01:16.773Z,1.30
2022-09-09T20:03:45.981Z,1.50
2022-09-09T20:06:15.099Z,1.35
2022-09-09T20:08:46.079Z,1.92
2022-09-09T20:11:13.757Z,1.52
2022-09-09T20:13:41.509Z,1.40
2022-09-09T20:16:11.362Z,1.40
2022-09-09T20:18:40.301Z,1.52
2022-09-09T20:21:25.365Z,1.45
2022-09-09T20:23:53.350Z,1.50
2022-09-09T20:26:23.457Z,1.42
2022-09-09T20:28:51.685Z,1.48
2022-09-09T20:31:21.586Z,1.40
2022-09-09T20:33:49.187Z,1.45
2022-09-09T20:36:20.392Z,2.03
2022-09-09T20:38:53.163Z,1.35
2022-09-09T20:41:22.613Z,1.40
2022-09-09T20:43:54.033Z,1.70
2022-09-09T20:46:23.609Z,1.38
2022-09-09T20:49:03.053Z,1.45
2022-09-09T20:51:33.104Z,1.70
2022-09-09T20:54:06.198Z,1.90
2022-09-09T20:56:37.526Z,2.00
2022-09-09T20:59:05.679Z,4.22
2022-09-09T21:01:32.629Z,3.70
2022-09-09T21:04:00.228Z,4.85
2022-09-09T21:06:27.135Z,2.33
2022-09-09T21:08:54.035Z,2.92
2022-09-09T21:11:21.276Z,2.50
2022-09-09T21:13:48.283Z,2.75
2022-09-09T21:16:19.474Z,1.92
2022-09-09T21:18:46.936Z,1.50
2022-09-09T21:21:14.924Z,1.95
2022-09-09T21:23:42.169Z,1.83
2022-09-09T21:26:09.825Z,1.65
2022-09-09T21:28:37.662Z,1.88
2022-09-09T21:31:05.737Z,1.77
2022-09-09T21:33:34.370Z,1.67
2022-09-09T21:36:06.373Z,2.15
2022-09-09T21:38:34.314Z,1.70
2022-09-09T21:41:06.070Z,1.52
2022-09-09T21:43:33.289Z,1.92
2022-09-09T21:46:02.449Z,1.50
2022-09-09T21:48:29.400Z,1.48
2022-09-09T21:50:56.177Z,1.45
2022-09-09T21:53:22.919Z,1.45
2022-09-09T21:55:49.737Z,1.30
2022-09-09T21:58:18.534Z,1.33
2022-09-09T22:00:47.022Z,1.45
2022-09-09T22:03:15.545Z,1.40
2022-09-09T22:05:44.538Z,1.40
2022-09-09T22:08:14.058Z,1.58
2022-09-09T22:10:45.731Z,1.65
2022-09-09T22:13:17.088Z,1.60
2022-09-09T22:15:45.575Z,1.60
2022-09-09T22:18:14.132Z,1.42
2022-09-09T22:20:43.921Z,1.88
2022-09-09T22:23:12.217Z,1.60
2022-09-09T22:25:40.407Z,1.40
2022-09-09T22:28:09.236Z,1.50
2022-09-09T22:30:36.452Z,1.60
2022-09-09T22:33:03.436Z,1.67
2022-09-09T22:35:30.205Z,1.65
2022-09-09T22:37:57.856Z,1.60
2022-09-09T22:40:24.626Z,1.65
2022-09-09T22:42:53.103Z,1.42
2022-09-09T22:45:21.662Z,1.15
2022-09-09T22:47:48.651Z,1.45
2022-09-09T22:50:15.493Z,1.52
2022-09-09T22:52:42.331Z,1.60
2022-09-09T22:55:09.444Z,1.50
2022-09-09T22:57:37.323Z,1.60
2022-09-09T23:00:09.312Z,1.40
2022-09-09T23:02:40.885Z,1.55
2022-09-09T23:05:10.971Z,1.50
2022-09-09T23:07:37.787Z,1.50
2022-09-09T23:10:05.558Z,1.48
2022-09-09T23:12:32.908Z,1.88
2022-09-09T23:14:59.824Z,1.60
2022-09-09T23:17:26.685Z,1.70
2022-09-09T23:19:55.401Z,1.60
2022-09-09T23:22:23.998Z,1.60
2022-09-09T23:24:52.769Z,1.70
2022-09-09T23:27:21.348Z,1.55
2022-09-09T23:29:48.790Z,1.80
2022-09-09T23:32:16.220Z,1.60
2022-09-09T23:34:45.310Z,1.65
2022-09-09T23:37:12.724Z,1.90
2022-09-09T23:39:43.470Z,1.80
2022-09-09T23:42:11.294Z,1.50
2022-09-09T23:44:39.501Z,1.63
2022-09-09T23:47:07.974Z,2.00
2022-09-09T23:49:37.211Z,1.80
2022-09-09T23:52:06.313Z,1.65
2022-09-09T23:54:34.693Z,1.70
2022-09-09T23:57:03.162Z,2.25
2022-09-09T23:59:31.096Z,1.60
